Aérodrome :
LOGIN :

S'inscrire | Disclaimer

   EN    FR    IT 

 










Légende :    VFR   VFR Marginal   IFR   IFR Intensif   IFR Très Intensif
Visi : 
Plafond : 
>= 8 km
>= 3000ft
5 à 8 km
1000 à 3000 ft
1500m à 5 km
500 à 1000 ft
800 à 1500m
200 à 500 ft
< 800m
< 200 ft
Symboles :   Orages  Brouillard  Fortes neiges  Fortes précipitations  Vent > 20 kt
SIGMETs :   Divers  Orages  Givrage  Turbulence  Onde Orograph.  Cendres Volcan.







- Altitude de l'aérodrome : 313 ft
- Code IATA : LEH
- Voir les cartes d'approche


LFOH - Le Havre Octeville

DERNIER METAR :
  • 162100Z AUTO 15004KT 9999 // NSC 10/03 Q1022

METARs EXPIRÉS :
  • 162030Z AUTO 13003KT 110V170 9999 // NSC 10/04 Q1022
  • 162000Z AUTO 16004KT 9999 // NSC 10/04 Q1022
  • 161930Z AUTO VRB02KT 9999 // NSC 11/04 Q1023
  • 161900Z AUTO 14003KT 9999 // NSC 10/03 Q1023
  • 161830Z AUTO 14003KT 9999 // NSC 11/03 Q1023

TAF TAF LFOH
Valide du 16 à 12h jusqu'au 17 à 12h UTC


161100Z 1612/1712 17005KT CAVOK
PROB30 1700/1707 4000 BR
BECMG 1709/1712 17015KT
ATIS : +33 2 35 54 64 93
Pas de NOTAMs connus pour ce terrain.



MET'MAP, la Météo Aéronautique d'un coup d'oeil ! - Copyright ORBIFLY Décembre 2007 - Disclaimer

ORBIFLY MET'MAP TEAM :

Programmation & Développement : Alexandra Zaïnal
Conception & Développement : Baudouin d'Aumeries
Co-Programmation & Développement : Marc-Olivier Méhu
Soutien technique & logistique : Manuel Goepfert

Contact : metmap@orbifly.com




SOURCES & CREDITS :

   NOAA